createdAt,value
2022-09-20T00:01:29.340Z,96.85
2022-09-20T00:06:32.819Z,96.63
2022-09-20T00:11:38.761Z,96.68
2022-09-20T00:16:42.046Z,96.52
2022-09-20T00:21:44.844Z,96.72
2022-09-20T00:26:47.545Z,96.45
2022-09-20T00:31:50.259Z,96.29
2022-09-20T00:36:53.010Z,96.38
2022-09-20T00:41:55.851Z,96.98
2022-09-20T00:47:00.984Z,96.97
2022-09-20T00:52:04.189Z,97.21
2022-09-20T00:57:06.922Z,97.28
2022-09-20T01:02:17.635Z,97.88
2022-09-20T01:07:22.636Z,97.92
2022-09-20T01:12:29.817Z,97.51
2022-09-20T01:17:36.156Z,97.14
2022-09-20T01:23:16.775Z,97.05
2022-09-20T01:28:19.855Z,97.42
2022-09-20T01:33:52.918Z,97.70
2022-09-20T01:38:58.298Z,97.71
2022-09-20T01:44:22.458Z,97.90
2022-09-20T01:49:40.913Z,98.14
2022-09-20T01:55:08.801Z,98.05
2022-09-20T02:00:24.065Z,98.03
2022-09-20T02:05:44.825Z,98.17
2022-09-20T02:10:50.268Z,98.11
2022-09-20T02:16:41.257Z,97.71
2022-09-20T02:21:53.195Z,97.46
2022-09-20T02:27:02.862Z,97.25
2022-09-20T02:32:20.889Z,97.40
2022-09-20T02:37:40.170Z,97.76
2022-09-20T02:43:04.003Z,97.03
2022-09-20T02:48:07.059Z,97.39
2022-09-20T02:53:40.993Z,97.10
2022-09-20T02:59:03.661Z,97.04
2022-09-20T03:04:30.621Z,96.91
2022-09-20T03:10:00.339Z,97.56
2022-09-20T03:15:29.180Z,97.56
2022-09-20T03:21:05.510Z,97.29
2022-09-20T03:26:24.191Z,97.32
2022-09-20T03:31:30.695Z,97.04
2022-09-20T03:36:49.656Z,96.92
2022-09-20T03:42:20.317Z,98.02
2022-09-20T03:48:02.012Z,98.80
2022-09-20T03:53:53.620Z,99.22
2022-09-20T03:59:02.271Z,97.95
2022-09-20T04:04:15.406Z,96.90
2022-09-20T04:09:44.110Z,96.86
2022-09-20T04:15:21.012Z,97.09
2022-09-20T04:20:44.276Z,96.68
2022-09-20T04:25:49.858Z,96.05
2022-09-20T04:31:00.429Z,95.36
2022-09-20T04:36:37.347Z,94.97
2022-09-20T04:42:15.436Z,94.70
2022-09-20T04:47:21.649Z,94.96
2022-09-20T04:52:54.157Z,95.06
2022-09-20T04:58:12.139Z,94.29
2022-09-20T05:03:39.332Z,94.34
2022-09-20T05:09:13.759Z,94.12
2022-09-20T05:14:27.272Z,93.54
2022-09-20T05:20:06.452Z,93.49
2022-09-20T05:25:47.054Z,93.05
2022-09-20T05:30:57.448Z,92.42
2022-09-20T05:36:34.266Z,91.57
2022-09-20T05:41:54.688Z,91.36
2022-09-20T05:47:33.100Z,91.40
2022-09-20T05:52:53.026Z,90.62
2022-09-20T05:58:01.834Z,90.06
2022-09-20T06:03:23.427Z,89.80
2022-09-20T06:08:53.940Z,89.90
2022-09-20T06:14:18.580Z,89.04
2022-09-20T06:19:47.442Z,89.07
2022-09-20T06:25:11.927Z,88.16
2022-09-20T06:30:24.305Z,87.17
2022-09-20T06:36:11.516Z,87.29
2022-09-20T06:41:28.394Z,86.78
2022-09-20T06:46:33.459Z,85.16
2022-09-20T06:51:38.713Z,84.75
2022-09-20T06:56:41.747Z,84.51
2022-09-20T07:01:44.674Z,84.24
2022-09-20T07:06:48.298Z,84.50
2022-09-20T07:11:51.987Z,84.18
2022-09-20T07:16:54.945Z,84.30
2022-09-20T07:21:58.081Z,83.94
2022-09-20T07:27:09.274Z,84.01
2022-09-20T07:32:16.081Z,83.45
2022-09-20T07:37:19.469Z,81.14
2022-09-20T07:42:26.106Z,81.01
2022-09-20T07:47:43.313Z,79.59
2022-09-20T07:52:48.676Z,78.19
2022-09-20T07:57:54.812Z,76.65
2022-09-20T08:03:00.305Z,74.59
2022-09-20T08:08:03.072Z,73.09
2022-09-20T08:18:28.952Z,72.01
2022-09-20T08:24:12.526Z,69.76
2022-09-20T08:29:20.015Z,69.15
2022-09-20T08:34:22.754Z,67.71
2022-09-20T08:45:00.890Z,62.67
2022-09-20T08:50:10.314Z,61.78
2022-09-20T08:55:24.508Z,59.55
2022-09-20T09:00:33.393Z,62.87
2022-09-20T09:05:48.207Z,64.37
2022-09-20T09:11:01.950Z,64.97
2022-09-20T09:16:22.509Z,64.80
2022-09-20T09:21:29.424Z,63.74
2022-09-20T09:26:38.907Z,62.55
2022-09-20T09:31:41.978Z,64.22
2022-09-20T09:36:44.985Z,64.33
2022-09-20T09:41:49.932Z,63.54
2022-09-20T09:46:53.741Z,63.34
2022-09-20T09:52:15.459Z,63.77
2022-09-20T09:57:36.739Z,62.37
2022-09-20T10:03:01.705Z,62.32
2022-09-20T10:08:28.745Z,61.79
2022-09-20T10:13:42.318Z,62.01
2022-09-20T10:18:49.089Z,62.94
2022-09-20T10:24:04.270Z,63.18
2022-09-20T10:29:26.253Z,61.65
2022-09-20T10:34:35.397Z,61.67
2022-09-20T10:39:41.267Z,61.36
2022-09-20T10:45:43.923Z,61.97
2022-09-20T10:50:46.851Z,60.57
2022-09-20T10:56:27.635Z,61.10
2022-09-20T11:01:35.697Z,62.59
2022-09-20T11:06:41.456Z,63.60
2022-09-20T11:11:48.522Z,63.62
2022-09-20T11:17:04.892Z,63.25
2022-09-20T11:22:12.385Z,62.70
2022-09-20T11:27:24.029Z,63.08
2022-09-20T11:32:37.689Z,63.49
2022-09-20T11:37:58.606Z,64.05
2022-09-20T11:43:06.754Z,62.93
2022-09-20T11:48:25.964Z,64.19
2022-09-20T11:53:38.904Z,65.56
2022-09-20T11:58:50.671Z,64.68
2022-09-20T12:04:31.756Z,63.71
2022-09-20T12:09:33.405Z,64.89
2022-09-20T12:14:36.355Z,66.58
2022-09-20T12:19:42.004Z,66.27
2022-09-20T12:24:45.765Z,66.45
2022-09-20T12:30:03.669Z,66.95
2022-09-20T12:35:45.682Z,67.50
2022-09-20T12:41:04.470Z,67.63
2022-09-20T12:46:11.856Z,68.06
2022-09-20T12:51:33.358Z,67.88
2022-09-20T12:56:39.821Z,67.53
2022-09-20T13:01:43.823Z,67.37
2022-09-20T13:06:47.830Z,67.54
2022-09-20T13:12:01.570Z,66.58
2022-09-20T13:17:16.171Z,66.76
2022-09-20T13:22:35.189Z,67.34
2022-09-20T13:27:45.216Z,67.06
2022-09-20T13:32:50.316Z,67.49
2022-09-20T13:38:02.117Z,67.01
2022-09-20T13:43:23.237Z,65.91
2022-09-20T13:48:30.278Z,65.88
2022-09-20T13:53:41.864Z,64.81
2022-09-20T13:58:46.993Z,64.12
2022-09-20T14:03:50.075Z,63.47
2022-09-20T14:08:53.360Z,64.53
2022-09-20T14:13:59.351Z,65.88
2022-09-20T14:19:04.130Z,67.08
2022-09-20T14:24:26.287Z,67.91
2022-09-20T14:29:31.856Z,68.51
2022-09-20T14:34:40.182Z,69.18
2022-09-20T14:39:54.327Z,70.17
2022-09-20T14:44:57.622Z,70.91
2022-09-20T14:50:00.568Z,71.56
2022-09-20T14:55:16.401Z,72.31
2022-09-20T15:00:20.840Z,72.65
2022-09-20T15:05:27.202Z,73.04
2022-09-20T15:10:30.633Z,73.61
2022-09-20T15:15:34.015Z,74.06
2022-09-20T15:20:36.887Z,74.38
2022-09-20T15:25:39.732Z,74.60
2022-09-20T15:30:44.130Z,74.66
2022-09-20T15:35:48.364Z,74.79
2022-09-20T15:40:51.401Z,75.05
2022-09-20T15:46:02.718Z,75.32
2022-09-20T15:51:07.999Z,76.07
2022-09-20T15:56:21.224Z,76.71
2022-09-20T16:01:24.143Z,77.58
2022-09-20T16:06:27.072Z,78.33
2022-09-20T16:11:30.238Z,79.11
2022-09-20T16:16:39.665Z,79.70
2022-09-20T16:21:48.296Z,80.13
2022-09-20T16:26:51.514Z,80.35
2022-09-20T16:31:55.176Z,80.65
2022-09-20T16:37:01.171Z,80.92
2022-09-20T16:42:07.485Z,81.27
2022-09-20T16:47:13.082Z,81.64
2022-09-20T16:52:16.017Z,82.05
2022-09-20T16:57:18.964Z,82.33
2022-09-20T17:02:21.667Z,82.71
2022-09-20T17:07:24.661Z,83.03
2022-09-20T17:12:33.930Z,83.34
2022-09-20T17:17:36.646Z,83.74
2022-09-20T17:22:39.424Z,83.72
2022-09-20T17:27:42.158Z,83.82
2022-09-20T17:32:48.217Z,83.90
2022-09-20T17:37:51.060Z,84.06
2022-09-20T17:42:55.414Z,84.57
2022-09-20T17:47:58.470Z,84.92
2022-09-20T17:53:01.198Z,85.29
2022-09-20T17:58:04.241Z,85.39
2022-09-20T18:03:07.084Z,85.39
2022-09-20T18:08:12.838Z,85.83
2022-09-20T18:13:15.714Z,85.76
2022-09-20T18:18:18.916Z,86.19
2022-09-20T18:23:21.664Z,86.46
2022-09-20T18:28:24.468Z,86.12
2022-09-20T18:33:27.663Z,86.60
2022-09-20T18:38:33.196Z,87.40
2022-09-20T18:43:35.991Z,88.41
2022-09-20T18:48:42.332Z,88.95
2022-09-20T18:53:45.422Z,89.49
2022-09-20T18:58:50.191Z,90.17
2022-09-20T19:04:31.863Z,90.35
2022-09-20T19:09:55.095Z,90.96
2022-09-20T19:15:12.755Z,91.22
2022-09-20T19:20:51.799Z,91.48
2022-09-20T19:26:14.927Z,91.76
2022-09-20T19:31:22.736Z,91.98
2022-09-20T19:36:30.403Z,92.17
2022-09-20T19:42:07.255Z,92.37
2022-09-20T19:47:37.483Z,92.78
2022-09-20T19:52:41.424Z,92.96
2022-09-20T19:57:47.273Z,92.86
2022-09-20T20:02:50.448Z,92.92
2022-09-20T20:08:15.002Z,92.86
2022-09-20T20:14:00.831Z,92.65
2022-09-20T20:19:41.199Z,92.99
2022-09-20T20:24:54.445Z,93.38
2022-09-20T20:29:57.485Z,93.73
2022-09-20T20:35:00.202Z,94.01
2022-09-20T20:40:03.233Z,93.98
2022-09-20T20:45:07.667Z,93.80
2022-09-20T20:50:13.266Z,93.78
2022-09-20T20:55:16.196Z,93.93
2022-09-20T21:00:18.922Z,93.64
2022-09-20T21:05:23.405Z,93.51
2022-09-20T21:10:26.297Z,93.32
2022-09-20T21:15:29.243Z,93.50
2022-09-20T21:20:32.145Z,93.71
2022-09-20T21:25:35.408Z,93.54
2022-09-20T21:30:38.245Z,93.76
2022-09-20T21:35:41.470Z,93.97
2022-09-20T21:40:44.335Z,93.71
2022-09-20T21:45:48.086Z,93.70
2022-09-20T21:50:50.849Z,93.65
2022-09-20T21:55:58.538Z,93.46
2022-09-20T22:01:04.930Z,93.82
2022-09-20T22:06:18.339Z,93.91
2022-09-20T22:11:22.374Z,94.02
2022-09-20T22:16:30.904Z,94.08
2022-09-20T22:21:37.686Z,94.45
2022-09-20T22:26:42.653Z,94.57
2022-09-20T22:31:47.391Z,94.75
2022-09-20T22:36:50.528Z,95.05
2022-09-20T22:41:54.301Z,95.20
2022-09-20T22:46:56.981Z,94.89
2022-09-20T22:52:01.208Z,95.69
2022-09-20T22:57:04.065Z,95.81
2022-09-20T23:02:06.742Z,96.19
2022-09-20T23:07:09.448Z,96.35
2022-09-20T23:12:12.184Z,95.97
2022-09-20T23:17:14.879Z,96.02
2022-09-20T23:22:17.533Z,96.55
2022-09-20T23:27:20.307Z,96.39
2022-09-20T23:32:23.033Z,95.93
2022-09-20T23:37:25.962Z,96.10
2022-09-20T23:42:28.682Z,96.44
2022-09-20T23:47:31.362Z,96.14
2022-09-20T23:52:34.042Z,96.28
2022-09-20T23:57:38.155Z,96.09
